KDUJ

Dubois Regional Airport

Dubois, Pennsylvania, USA
KDUJ 212325Z 2200/2224 29010KT P6SM VCSH SCT250 FM220800 VRB04KT P6SM SCT015 FM221500 12007KT P6SM SCT250
Issued Valid From Valid To
Jan-21 @ 23:25 UTC
(2 hours ago)
Jan-22 @ 00:00 UTC
(59 minutes ago)
Jan-23 @ 00:00 UTC
(in 23 hours)
Jan-22 @ 00:00 to Jan-22 @ 08:00
KDUJ 212325Z 2200/2224 29010KT P6SM VCSH SCT250
Wind Visibility Clouds
290° at 10 knots Greater than 6 miles
  • Scattered at 25,000' AGL
From Jan-22 @ 08:00 to Jan-22 @ 15:00
FM220800 VRB04KT P6SM SCT015
Wind Visibility Clouds
Variable at 4 knots Greater than 6 miles
  • Scattered at 1,500' AGL
From Jan-22 @ 15:00 to Jan-23 @ 00:00
FM221500 12007KT P6SM SCT250
Wind Visibility Clouds
120° at 7 knots Greater than 6 miles
  • Scattered at 25,000' AGL
KDUJ 212325Z 2200/2224 29010KT P6SM VCSH SCT250 FM220800 VRB04KT P6SM SCT015 FM221500 12007KT P6SM SCT250
Issued Jan-21 @ 23:25 UTC
(2 hours ago)
Valid From Jan-22 @ 00:00 UTC
(59 minutes ago)
Valid To Jan-23 @ 00:00 UTC
(in 23 hours)
Jan-22 @ 00:00 - Jan-22 @ 08:00
Wind Visibility
290° at 10 knots Greater than 6 miles
Clouds
  • Scattered at 25,000' AGL
From Jan-22 @ 08:00 - Jan-22 @ 15:00
Wind Visibility
Variable at 4 knots Greater than 6 miles
Clouds
  • Scattered at 1,500' AGL
From Jan-22 @ 15:00 - Jan-23 @ 00:00
Wind Visibility
120° at 7 knots Greater than 6 miles
Clouds
  • Scattered at 25,000' AGL